createdAt,value
2023-01-09T00:00:44.639Z,24.70
2023-01-09T00:06:57.588Z,24.50
2023-01-09T00:13:08.178Z,24.50
2023-01-09T00:19:21.763Z,24.60
2023-01-09T00:25:34.530Z,24.70
2023-01-09T00:31:48.397Z,24.70
2023-01-09T00:37:56.297Z,24.60
2023-01-09T00:44:10.678Z,24.50
2023-01-09T00:50:23.697Z,24.60
2023-01-09T00:56:39.729Z,24.70
2023-01-09T01:02:50.940Z,24.70
2023-01-09T01:09:02.295Z,24.50
2023-01-09T01:15:15.415Z,24.40
2023-01-09T01:21:32.017Z,24.40
2023-01-09T01:27:39.158Z,24.60
2023-01-09T01:33:47.680Z,24.40
2023-01-09T01:39:59.563Z,24.30
2023-01-09T01:46:11.069Z,24.20
2023-01-09T01:52:21.757Z,24.10
2023-01-09T01:58:34.332Z,24.10
2023-01-09T02:04:46.044Z,23.90
2023-01-09T02:10:59.700Z,23.80
2023-01-09T02:17:14.592Z,23.80
2023-01-09T02:24:17.455Z,23.60
2023-01-09T02:30:37.671Z,23.60
2023-01-09T02:36:50.093Z,23.50
2023-01-09T02:43:04.708Z,23.40
2023-01-09T02:49:17.750Z,23.30
2023-01-09T02:55:42.281Z,23.30
2023-01-09T03:01:55.130Z,23.20
2023-01-09T03:08:10.869Z,23.10
2023-01-09T03:14:20.565Z,23.10
2023-01-09T03:20:35.341Z,23.00
2023-01-09T03:26:45.493Z,23.00
2023-01-09T03:32:59.276Z,22.90
2023-01-09T03:39:13.997Z,22.90
2023-01-09T03:45:29.131Z,22.90
2023-01-09T03:51:43.262Z,22.80
2023-01-09T03:57:54.636Z,22.80
2023-01-09T04:04:07.163Z,22.70
2023-01-09T04:10:24.781Z,22.70
2023-01-09T04:16:37.009Z,22.70
2023-01-09T04:22:50.299Z,22.60
2023-01-09T04:29:03.861Z,22.50
2023-01-09T04:35:17.371Z,22.50
2023-01-09T04:41:45.562Z,22.40
2023-01-09T04:47:58.897Z,22.50
2023-01-09T04:54:11.559Z,22.30
2023-01-09T05:00:22.919Z,22.30
2023-01-09T05:06:33.298Z,22.30
2023-01-09T05:12:43.033Z,22.30
2023-01-09T05:18:57.468Z,22.30
2023-01-09T05:25:10.156Z,22.20
2023-01-09T05:31:23.885Z,22.20
2023-01-09T05:37:35.889Z,22.10
2023-01-09T05:43:46.249Z,22.00
2023-01-09T05:49:58.600Z,22.00
2023-01-09T05:56:10.121Z,21.90
2023-01-09T06:02:20.762Z,22.00
2023-01-09T06:08:32.028Z,21.80
2023-01-09T06:14:42.292Z,21.80
2023-01-09T06:20:53.643Z,21.70
2023-01-09T06:27:03.460Z,21.70
2023-01-09T06:33:11.015Z,21.70
2023-01-09T06:39:21.859Z,21.60
2023-01-09T06:45:33.137Z,21.60
2023-01-09T06:51:42.661Z,21.50
2023-01-09T06:57:51.668Z,21.50
2023-01-09T07:04:01.288Z,21.40
2023-01-09T07:10:11.152Z,21.40
2023-01-09T07:16:21.544Z,21.40
2023-01-09T07:22:32.070Z,21.30
2023-01-09T07:28:43.497Z,21.30
2023-01-09T07:34:52.273Z,21.30
2023-01-09T07:41:04.769Z,21.10
2023-01-09T07:47:15.749Z,21.30
2023-01-09T07:53:25.170Z,21.70
2023-01-09T07:59:35.634Z,21.70
2023-01-09T08:05:44.079Z,21.60
2023-01-09T08:11:52.195Z,21.50
2023-01-09T08:18:03.421Z,21.50
2023-01-09T08:24:12.499Z,21.80
2023-01-09T08:30:22.908Z,21.80
2023-01-09T08:36:34.707Z,21.60
2023-01-09T08:43:04.025Z,21.50
2023-01-09T08:49:13.233Z,21.60
2023-01-09T08:55:23.145Z,21.90
2023-01-09T09:01:33.398Z,21.80
2023-01-09T09:07:43.618Z,21.60
2023-01-09T09:13:54.494Z,21.50
2023-01-09T09:20:05.848Z,21.80
2023-01-09T09:26:14.141Z,21.90
2023-01-09T09:32:21.835Z,21.80
2023-01-09T09:38:29.684Z,21.60
2023-01-09T09:44:55.033Z,21.50
2023-01-09T09:51:53.529Z,21.70
2023-01-09T09:58:03.331Z,21.90
2023-01-09T10:04:16.207Z,21.70
2023-01-09T10:10:27.462Z,21.60
2023-01-09T10:16:45.938Z,21.60
2023-01-09T10:22:56.124Z,21.80
2023-01-09T10:36:05.845Z,21.70
2023-01-09T10:42:20.357Z,21.60
2023-01-09T10:48:32.487Z,21.60
2023-01-09T10:54:42.992Z,21.90
2023-01-09T11:00:52.624Z,21.80
2023-01-09T11:07:06.423Z,21.70
2023-01-09T11:19:41.414Z,21.70
2023-01-09T11:25:55.098Z,22.00
2023-01-09T11:32:08.480Z,21.80
2023-01-09T11:38:18.831Z,21.60
2023-01-09T11:44:26.933Z,21.70
2023-01-09T11:50:40.264Z,21.90
2023-01-09T11:56:48.919Z,21.90
2023-01-09T12:03:06.364Z,21.70
2023-01-09T12:09:16.039Z,21.60
2023-01-09T12:15:29.342Z,21.70
2023-01-09T12:21:40.491Z,21.90
2023-01-09T12:28:04.122Z,22.10
2023-01-09T12:34:21.596Z,22.40
2023-01-09T12:40:46.629Z,22.70
2023-01-09T12:46:58.576Z,22.90
2023-01-09T12:53:11.939Z,23.10
2023-01-09T12:59:33.195Z,23.40
2023-01-09T13:05:44.215Z,23.50
2023-01-09T13:11:58.670Z,23.40
2023-01-09T13:18:13.502Z,23.10
2023-01-09T13:24:22.435Z,23.20
2023-01-09T13:30:58.706Z,23.50
2023-01-09T13:37:08.922Z,23.70
2023-01-09T13:43:24.006Z,23.50
2023-01-09T13:50:11.320Z,23.30
2023-01-09T13:56:25.463Z,23.50
2023-01-09T14:09:34.465Z,23.60
2023-01-09T14:15:46.085Z,23.30
2023-01-09T14:21:57.251Z,23.30
2023-01-09T14:28:30.399Z,23.60
2023-01-09T14:34:41.089Z,23.90
2023-01-09T14:40:53.247Z,24.00
2023-01-09T14:47:04.435Z,23.80
2023-01-09T14:53:17.594Z,23.70
2023-01-09T14:59:29.457Z,23.70
2023-01-09T15:05:41.779Z,23.90
2023-01-09T15:11:53.045Z,24.10
2023-01-09T15:18:07.471Z,23.90
2023-01-09T15:24:25.075Z,23.70
2023-01-09T15:30:38.131Z,23.60
2023-01-09T15:36:52.112Z,23.80
2023-01-09T15:43:03.701Z,24.00
2023-01-09T15:49:15.894Z,24.10
2023-01-09T15:55:39.133Z,23.90
2023-01-09T16:01:54.273Z,23.70
2023-01-09T16:08:03.574Z,23.60
2023-01-09T16:14:21.163Z,23.70
2023-01-09T16:20:36.030Z,24.00
2023-01-09T16:26:45.900Z,24.20
2023-01-09T16:32:53.618Z,24.00
2023-01-09T16:39:04.260Z,23.80
2023-01-09T16:45:19.796Z,23.60
2023-01-09T16:51:32.730Z,23.50
2023-01-09T16:57:42.589Z,23.80
2023-01-09T17:03:53.145Z,23.90
2023-01-09T17:10:05.342Z,23.80
2023-01-09T17:16:22.347Z,23.60
2023-01-09T17:28:52.277Z,23.90
2023-01-09T17:35:00.254Z,23.70
2023-01-09T17:41:10.165Z,23.60
2023-01-09T17:47:21.103Z,23.60
2023-01-09T17:53:34.042Z,23.50
2023-01-09T17:59:45.126Z,23.70
2023-01-09T18:05:54.431Z,23.90
2023-01-09T18:12:05.919Z,23.70
2023-01-09T18:18:14.877Z,23.60
2023-01-09T18:24:25.055Z,23.50
2023-01-09T18:30:35.407Z,23.80
2023-01-09T18:36:46.030Z,24.20
2023-01-09T18:42:53.905Z,24.10
2023-01-09T18:49:04.217Z,23.80
2023-01-09T18:55:17.993Z,23.70
2023-01-09T19:01:30.020Z,23.70
2023-01-09T19:07:37.937Z,23.90
2023-01-09T19:13:47.539Z,24.00
2023-01-09T19:20:03.831Z,23.80
2023-01-09T19:26:19.581Z,23.70
2023-01-09T19:32:31.467Z,23.80
2023-01-09T19:38:44.836Z,24.10
2023-01-09T19:44:58.212Z,24.20
2023-01-09T19:51:11.689Z,24.00
2023-01-09T19:57:25.402Z,23.80
2023-01-09T20:03:40.341Z,23.80
2023-01-09T20:09:52.869Z,24.00
2023-01-09T20:16:07.887Z,24.10
2023-01-09T20:22:26.713Z,23.80
2023-01-09T20:28:43.116Z,23.70
2023-01-09T20:35:05.884Z,23.90
2023-01-09T20:41:25.638Z,24.00
2023-01-09T20:47:45.068Z,23.80
2023-01-09T20:54:03.388Z,23.70
2023-01-09T21:00:30.091Z,23.60
2023-01-09T21:06:43.206Z,23.70
2023-01-09T21:12:55.858Z,23.90
2023-01-09T21:19:08.244Z,23.80
2023-01-09T21:25:18.081Z,23.70
2023-01-09T21:31:34.458Z,23.60
2023-01-09T21:37:41.163Z,23.60
2023-01-09T21:44:10.030Z,23.80
2023-01-09T21:50:22.740Z,23.80
2023-01-09T21:56:34.353Z,23.60
2023-01-09T22:02:45.389Z,23.50
2023-01-09T22:08:58.099Z,23.30
2023-01-09T22:15:09.595Z,23.20
2023-01-09T22:21:21.955Z,23.70
2023-01-09T22:27:32.815Z,23.90
2023-01-09T22:33:44.056Z,23.70
2023-01-09T22:39:55.483Z,23.60
2023-01-09T22:46:11.482Z,23.50
2023-01-09T22:52:22.085Z,23.60
2023-01-09T22:58:32.819Z,24.00
2023-01-09T23:04:42.557Z,24.00
2023-01-09T23:10:52.846Z,23.80
2023-01-09T23:17:03.932Z,23.70
2023-01-09T23:23:15.399Z,23.70
2023-01-09T23:29:25.366Z,24.10
2023-01-09T23:35:35.171Z,24.20
2023-01-09T23:42:05.936Z,24.00
2023-01-09T23:48:20.547Z,23.90
2023-01-09T23:54:29.241Z,23.80
